Terminal Aerodrome Forecast
Issued by NWS Wilmington, OH

Current Version | Previous Version | Graphics & Text | Print | Product List | Glossary On
Versions: 1 2 3 4 5 6 7 8 9 10 11 12 13 14 15 16 17 18 19 20 21 22
000
FTUS41 KILN 250500 RRA
TAFILN
TAF
KILN 250547Z 2506/2606 21007KT P6SM OVC025
      TEMPO 2506/2508 OVC035
     FM250800 19005KT P6SM FEW035 BKN150
      TEMPO 2509/2512 5SM BR
     FM251500 10007KT P6SM -RA SCT012 OVC050
     FM251900 10005KT 5SM -RA OVC015
     FM260000 05009KT 2SM -RA OVC005
     FM260200 03013G22KT 1SM -SN OVC006
      TEMPO 2602/2604 1/2SM SN=

USA.gov is the U.S. government's official web portal to all federal, state and local government web resources and services.